Terminal Aerodrome Forecast
Issued by NWS Omaha/Valley, NE

Home | Current Version | Previous Version | Graphics & Text | Print | Product List | Glossary On
Versions: 1 2 3 4 5 6 7 8 9 10 11 12 13 14 15 16 17 18 19 20 21 22 23 24 25 26 27 28 29 30 31 32 33 34 35 36 37 38 39 40 41 42
000
FTUS43 KOAX 202323
TAFOFK
TAF
KOFK 202323Z 2100/2124 17010KT 4SM BR OVC004
     FM210300 18008KT 2SM BR OVC004
     FM210500 18006KT 3/4SM BR OVC002
      TEMPO 2108/2112 1/2SM FG OVC001
     FM211500 19010KT 2SM BR OVC004
     FM211700 19013KT 4SM HZ OVC007
     FM211900 19015G22KT 5SM BR OVC015=

USA.gov is the U.S. government's official web portal to all federal, state and local government web resources and services.